Deline, Canada
Current Conditions -  °F | °C
As of 5:00 PM on Tuesday 27 Jan 2015 (Local Time) from CYWJ Reporting Station
Clear Clear  
Wind Chill: -38°   Ceiling: Unl
Heat Index: -22°   Visibility: 40mi
Dew Point: -29°   Wind: 6mph
Humidity: 69%   Direction: 290°WNW
Pressure: 30.21"   Gusts: NA
Location:  65.18°N, 123.42°W
Report Text: CYWJ 280000Z 29005KT 40SM SKC M30/M34 A3021 RMK -28.9/-34.7/0/36 MUCH LOOSE LAST OB/NXT 281400UTC SLP268
Loading
Personal Weather Stations






























Interactive Weather Map New forecast layout! Learn more

10-Day Weather Forecast

Advertisements
Track Severe Weather on mobile